Time;durP1;ratioP1;P1;durP2;ratioP2;P2;SDS_P1;SDS_P2;PMS_P1;PMS_P2;Temp;Humidity;BMP_temperature;BMP_pressure;BME280_temperature;BME280_humidity;BME280_pressure;Samples;Min_cycle;Max_cycle;Signal;HPM_P1;HPM_P2
2022/07/11 00:01:51;;;;;;;0.60;0.60;;;16.60;99.90;;;;;;4103172;28;20055;-83
2022/07/11 00:04:12;;;;;;;0.70;0.70;;;16.60;99.90;;;;;;4083690;28;20472;-84
2022/07/11 00:06:33;;;;;;;0.60;0.60;;;16.80;99.90;;;;;;4104505;28;20050;-84
2022/07/11 00:08:56;;;;;;;1.38;0.70;;;16.90;99.90;;;;;;4178292;28;20095;-83
2022/07/11 00:11:16;;;;;;;0.60;0.60;;;16.80;99.90;;;;;;4178603;28;20051;-84
2022/07/11 00:13:37;;;;;;;1.35;1.25;;;16.70;99.90;;;;;;4170224;28;20047;-84
2022/07/11 00:15:59;;;;;;;0.60;0.60;;;16.60;99.90;;;;;;4160755;28;20051;-84
2022/07/11 00:18:20;;;;;;;0.70;0.70;;;16.70;99.90;;;;;;4158360;28;20064;-83
2022/07/11 00:20:40;;;;;;;0.70;0.70;;;16.70;99.90;;;;;;4145891;28;20128;-84
2022/07/11 00:23:01;;;;;;;0.60;0.60;;;16.60;99.90;;;;;;4161874;28;20049;-83
2022/07/11 00:25:22;;;;;;;0.60;0.60;;;16.70;99.90;;;;;;4147111;28;20501;-84
2022/07/11 00:27:43;;;;;;;1.33;0.70;;;16.70;99.90;;;;;;4146931;28;20096;-84
2022/07/11 00:30:10;;;;;;;0.70;0.70;;;16.50;99.90;;;;;;4147866;28;20056;-84
2022/07/11 00:32:32;;;;;;;0.70;0.70;;;16.50;99.90;;;;;;4162002;28;20179;-84
2022/07/11 00:34:53;;;;;;;2.80;0.70;;;16.50;99.90;;;;;;4145526;28;20060;-83
2022/07/11 00:37:13;;;;;;;2.35;0.70;;;16.50;99.90;;;;;;4155759;28;20121;-84
2022/07/11 00:39:36;;;;;;;0.70;0.70;;;16.40;99.90;;;;;;4161685;28;20442;-83
2022/07/11 00:41:56;;;;;;;0.77;0.60;;;16.30;99.90;;;;;;4146974;28;20108;-83
2022/07/11 00:44:17;;;;;;;2.17;0.70;;;16.30;99.90;;;;;;4161177;28;20128;-83
2022/07/11 00:46:37;;;;;;;1.48;0.77;;;16.30;99.90;;;;;;4161550;28;20845;-83
2022/07/11 00:48:59;;;;;;;0.70;0.70;;;16.40;99.90;;;;;;4147941;28;20422;-83
2022/07/11 00:51:22;;;;;;;1.10;0.70;;;16.30;99.90;;;;;;4130612;28;20080;-84
2022/07/11 00:53:43;;;;;;;0.70;0.70;;;16.20;99.90;;;;;;4160212;28;20080;-83
2022/07/11 00:56:07;;;;;;;0.70;0.70;;;16.10;99.90;;;;;;4161981;28;20055;-84
2022/07/11 00:58:29;;;;;;;0.70;0.70;;;16.10;99.90;;;;;;4145746;28;20073;-83
2022/07/11 01:00:50;;;;;;;0.70;0.70;;;16.10;99.90;;;;;;4161905;28;20128;-83
2022/07/11 01:03:12;;;;;;;0.70;0.70;;;16.10;99.90;;;;;;4146955;28;20052;-83
2022/07/11 01:05:34;;;;;;;0.73;0.73;;;16.00;99.90;;;;;;4161166;28;20052;-84
2022/07/11 01:07:56;;;;;;;0.70;0.70;;;15.80;99.90;;;;;;4161609;28;20051;-83
2022/07/11 01:10:17;;;;;;;0.70;0.70;;;15.70;99.90;;;;;;4147090;28;20138;-84
2022/07/11 01:12:41;;;;;;;0.60;0.60;;;15.80;99.90;;;;;;4158477;28;20605;-84
2022/07/11 01:15:03;;;;;;;0.70;0.70;;;15.80;99.90;;;;;;4146931;28;20088;-83
2022/07/11 01:17:23;;;;;;;2.42;0.98;;;15.70;99.90;;;;;;4168015;28;20051;-84
2022/07/11 01:19:46;;;;;;;0.77;0.70;;;15.60;99.90;;;;;;4161434;28;20107;-83
2022/07/11 01:22:07;;;;;;;0.70;0.70;;;15.70;99.90;;;;;;4159013;28;20056;-83
2022/07/11 01:24:28;;;;;;;0.70;0.70;;;15.60;99.90;;;;;;4165683;28;20048;-83
2022/07/11 01:26:50;;;;;;;0.70;0.70;;;15.50;99.90;;;;;;4180909;28;20131;-83
2022/07/11 01:29:14;;;;;;;1.08;0.70;;;15.60;99.90;;;;;;4154516;28;20568;-83
2022/07/11 01:31:37;;;;;;;0.60;0.60;;;15.60;99.90;;;;;;4170956;28;20486;-83
2022/07/11 01:33:58;;;;;;;1.50;0.70;;;15.40;99.90;;;;;;4180759;28;20056;-83
2022/07/11 01:36:20;;;;;;;1.20;0.88;;;15.20;99.90;;;;;;4180531;28;20055;-83
2022/07/11 01:38:41;;;;;;;3.15;0.95;;;15.30;99.90;;;;;;4149437;28;20097;-83
2022/07/11 01:41:05;;;;;;;0.70;0.70;;;15.40;99.90;;;;;;4162338;28;20087;-83
2022/07/11 01:43:26;;;;;;;0.70;0.70;;;15.50;99.90;;;;;;4167191;28;20151;-84
2022/07/11 01:45:51;;;;;;;0.70;0.70;;;15.50;99.90;;;;;;4169962;28;20051;-84
2022/07/11 01:48:12;;;;;;;0.85;0.85;;;15.40;99.90;;;;;;4149506;28;20053;-84
2022/07/11 01:50:32;;;;;;;1.50;1.10;;;15.20;99.90;;;;;;4162157;28;20161;-84
2022/07/11 01:52:53;;;;;;;0.80;0.80;;;15.10;99.90;;;;;;4165771;28;20044;-83
2022/07/11 01:55:15;;;;;;;0.70;0.70;;;15.10;99.90;;;;;;4165197;28;20057;-83
2022/07/11 01:57:35;;;;;;;0.80;0.80;;;15.10;99.90;;;;;;4165782;28;20095;-84
2022/07/11 01:59:56;;;;;;;0.70;0.70;;;15.20;99.90;;;;;;4178956;28;20096;-83
2022/07/11 02:02:18;;;;;;;1.65;0.80;;;15.30;99.90;;;;;;4180240;28;20055;-83
2022/07/11 02:04:40;;;;;;;1.08;0.70;;;15.30;99.90;;;;;;4180497;28;20051;-84
2022/07/11 02:07:01;;;;;;;1.00;1.00;;;15.30;99.90;;;;;;4166609;28;20532;-84
2022/07/11 02:09:22;;;;;;;1.50;0.98;;;15.30;99.90;;;;;;4162334;28;20056;-83
2022/07/11 02:11:43;;;;;;;0.77;0.77;;;15.30;99.90;;;;;;4157766;28;20524;-83
2022/07/11 02:14:03;;;;;;;1.38;0.70;;;15.10;99.90;;;;;;4180441;28;20819;-83
2022/07/11 02:16:24;;;;;;;0.68;0.68;;;15.00;99.90;;;;;;4165359;28;20481;-84
2022/07/11 02:18:46;;;;;;;1.10;0.80;;;14.90;99.90;;;;;;4164060;28;20133;-83
2022/07/11 02:21:06;;;;;;;0.70;0.70;;;14.80;99.90;;;;;;4148907;28;20049;-83
2022/07/11 02:23:28;;;;;;;1.23;0.70;;;14.70;99.90;;;;;;4162457;28;20048;-83
2022/07/11 02:25:49;;;;;;;0.80;0.80;;;14.70;99.90;;;;;;4163151;28;20049;-83
2022/07/11 02:28:11;;;;;;;0.70;0.70;;;14.80;99.90;;;;;;4174917;28;20417;-84
2022/07/11 02:30:32;;;;;;;0.70;0.70;;;14.90;99.90;;;;;;4163443;28;20145;-85
2022/07/11 02:32:53;;;;;;;0.80;0.80;;;14.80;99.90;;;;;;4163372;28;20051;-83
2022/07/11 02:35:14;;;;;;;0.80;0.80;;;14.70;99.90;;;;;;4163425;28;20056;-83
2022/07/11 02:37:35;;;;;;;0.70;0.70;;;14.70;99.90;;;;;;4166474;28;20052;-83
2022/07/11 02:39:55;;;;;;;0.60;0.60;;;14.80;99.90;;;;;;4179833;28;20056;-83
2022/07/11 02:42:16;;;;;;;0.85;0.85;;;14.70;99.90;;;;;;4163272;28;20052;-83
2022/07/11 02:44:37;;;;;;;2.47;0.80;;;14.80;99.90;;;;;;4148433;28;20057;-83
2022/07/11 02:46:57;;;;;;;0.70;0.70;;;14.80;99.90;;;;;;4163203;28;20580;-83
2022/07/11 02:49:18;;;;;;;0.70;0.70;;;14.80;99.90;;;;;;4163224;28;20060;-83
2022/07/11 02:51:39;;;;;;;0.70;0.70;;;14.60;99.90;;;;;;4162751;28;20164;-84
2022/07/11 02:54:00;;;;;;;0.70;0.70;;;14.50;99.90;;;;;;4161934;28;20052;-83
2022/07/11 02:56:21;;;;;;;0.70;0.70;;;14.60;99.90;;;;;;4163532;28;20052;-83
2022/07/11 02:58:41;;;;;;;0.70;0.70;;;14.60;99.90;;;;;;4179190;28;20051;-83
2022/07/11 03:01:03;;;;;;;0.75;0.75;;;14.60;99.90;;;;;;4166883;28;20652;-83
2022/07/11 03:03:25;;;;;;;;;;;14.60;99.90;;;;;;4158712;28;20445;-83
2022/07/11 03:05:46;;;;;;;2.80;0.80;;;14.50;99.90;;;;;;4162502;28;19944;-83
2022/07/11 03:08:07;;;;;;;0.80;0.80;;;14.50;99.90;;;;;;4156724;28;20048;-83
2022/07/11 03:10:29;;;;;;;0.70;0.70;;;14.40;99.90;;;;;;4167491;28;20064;-83
2022/07/11 03:12:50;;;;;;;1.42;0.80;;;14.50;99.90;;;;;;4136486;28;20120;-83
2022/07/11 03:15:11;;;;;;;1.55;0.80;;;14.50;99.90;;;;;;4162628;28;20052;-84
2022/07/11 03:17:32;;;;;;;0.70;0.70;;;14.30;99.90;;;;;;4178971;28;20059;-83
2022/07/11 03:19:52;;;;;;;0.80;0.80;;;14.30;99.90;;;;;;4179226;28;20412;-83
2022/07/11 03:22:15;;;;;;;0.80;0.80;;;14.20;99.90;;;;;;4181896;28;20120;-83
2022/07/11 03:24:37;;;;;;;;;;;14.30;99.90;;;;;;4172441;28;20131;-83
2022/07/11 03:26:58;;;;;;;0.70;0.70;;;14.40;99.90;;;;;;4163915;28;19939;-83
2022/07/11 03:29:19;;;;;;;0.80;0.80;;;14.30;99.90;;;;;;4170119;28;20100;-84
2022/07/11 03:31:40;;;;;;;0.70;0.70;;;14.20;99.90;;;;;;4160402;28;20098;-83
2022/07/11 03:34:01;;;;;;;1.20;0.80;;;14.10;99.90;;;;;;4179179;28;20524;-83
2022/07/11 03:36:22;;;;;;;2.70;0.70;;;14.10;99.90;;;;;;4178671;28;20056;-83
2022/07/11 03:38:43;;;;;;;0.70;0.70;;;14.10;99.90;;;;;;4186286;28;20117;-83
2022/07/11 03:41:29;;;;;;;0.70;0.70;;;14.10;99.90;;;;;;4192146;28;20075;-84
2022/07/11 03:43:51;;;;;;;0.88;0.88;;;14.00;99.90;;;;;;4129695;28;20086;-83
2022/07/11 03:46:12;;;;;;;1.65;0.80;;;13.90;99.90;;;;;;4122298;28;20160;-83
2022/07/11 03:48:33;;;;;;;2.67;0.70;;;13.80;99.90;;;;;;4133577;28;20053;-83
2022/07/11 03:50:53;;;;;;;0.90;0.90;;;13.70;99.90;;;;;;4102200;28;20050;-83
2022/07/11 03:53:14;;;;;;;0.73;0.73;;;13.80;99.90;;;;;;4143470;28;20486;-84
2022/07/11 03:55:37;;;;;;;0.90;0.90;;;13.70;99.90;;;;;;4114897;28;20112;-83
2022/07/11 03:57:59;;;;;;;0.70;0.70;;;13.60;99.90;;;;;;4127284;28;20105;-83
2022/07/11 04:00:20;;;;;;;1.48;0.80;;;13.70;99.90;;;;;;4112718;28;20077;-83
2022/07/11 04:02:41;;;;;;;3.03;0.85;;;13.80;99.90;;;;;;4127312;28;20057;-83
2022/07/11 04:05:05;;;;;;;0.73;0.70;;;13.70;99.90;;;;;;4127251;28;20056;-83
2022/07/11 04:07:25;;;;;;;0.80;0.80;;;13.80;99.90;;;;;;4126853;28;20614;-84
2022/07/11 04:09:47;;;;;;;0.90;0.90;;;13.80;99.90;;;;;;4140557;28;20052;-83
2022/07/11 04:12:08;;;;;;;1.50;0.80;;;13.80;99.90;;;;;;4126866;28;20056;-83
2022/07/11 04:14:28;;;;;;;0.80;0.80;;;13.90;99.90;;;;;;4126610;28;20057;-83
2022/07/11 04:16:49;;;;;;;0.77;0.77;;;13.90;99.90;;;;;;4124428;28;20396;-83
2022/07/11 04:19:11;;;;;;;0.70;0.70;;;14.00;99.90;;;;;;4139053;28;20442;-83
2022/07/11 04:21:31;;;;;;;1.33;0.80;;;14.10;99.90;;;;;;4173045;28;20107;-83
2022/07/11 04:23:54;;;;;;;1.10;0.70;;;14.10;99.90;;;;;;4162527;28;20076;-83
2022/07/11 04:26:15;;;;;;;0.70;0.70;;;14.00;99.90;;;;;;4171152;28;20099;-83
2022/07/11 04:28:36;;;;;;;0.82;0.70;;;14.00;99.90;;;;;;4176138;28;20051;-83
2022/07/11 04:30:56;;;;;;;0.70;0.70;;;14.00;99.90;;;;;;4166686;28;20064;-83
2022/07/11 04:33:17;;;;;;;1.48;0.73;;;14.00;99.90;;;;;;4170653;28;20056;-83
2022/07/11 04:35:39;;;;;;;0.98;0.98;;;13.90;99.90;;;;;;4165130;28;20077;-83
2022/07/11 04:38:01;;;;;;;0.77;0.77;;;13.90;99.90;;;;;;4161136;28;20312;-83
2022/07/11 04:40:23;;;;;;;0.80;0.80;;;13.80;99.90;;;;;;4159484;28;20145;-83
2022/07/11 04:42:44;;;;;;;0.80;0.80;;;13.90;99.90;;;;;;4170501;28;20048;-83
2022/07/11 04:45:05;;;;;;;0.90;0.90;;;13.90;99.90;;;;;;4175117;28;20044;-83
2022/07/11 04:47:25;;;;;;;0.90;0.90;;;14.00;99.90;;;;;;4157817;28;20082;-83
2022/07/11 04:49:46;;;;;;;1.50;0.88;;;14.10;99.90;;;;;;4179233;28;20094;-83
2022/07/11 04:52:07;;;;;;;0.70;0.70;;;14.00;99.90;;;;;;4161108;28;20228;-82
2022/07/11 04:54:28;;;;;;;2.05;0.80;;;14.00;99.90;;;;;;4160044;28;20060;-83
2022/07/11 04:56:48;;;;;;;0.90;0.90;;;14.00;99.90;;;;;;4174463;28;20055;-82
2022/07/11 04:59:09;;;;;;;1.15;0.80;;;14.10;99.90;;;;;;4179117;28;20103;-83
2022/07/11 05:01:31;;;;;;;0.80;0.80;;;14.10;99.90;;;;;;4163486;28;20073;-85
2022/07/11 05:03:52;;;;;;;0.80;0.80;;;14.20;99.90;;;;;;4164003;28;20105;-85
2022/07/11 05:06:13;;;;;;;0.70;0.70;;;14.20;99.90;;;;;;4161565;28;20112;-86
2022/07/11 05:08:36;;;;;;;0.80;0.80;;;14.30;99.90;;;;;;4180357;28;20047;-85
2022/07/11 05:10:58;;;;;;;0.70;0.70;;;14.40;99.90;;;;;;4180210;28;20051;-86
2022/07/11 05:13:18;;;;;;;0.80;0.80;;;14.40;99.90;;;;;;4178888;28;20059;-85
2022/07/11 05:15:39;;;;;;;1.00;0.90;;;14.50;99.90;;;;;;4149058;28;20088;-86
2022/07/11 05:17:59;;;;;;;0.80;0.80;;;14.60;99.90;;;;;;4158512;28;20086;-86
2022/07/11 05:20:22;;;;;;;1.40;0.80;;;14.50;99.90;;;;;;4165732;28;20056;-95
2022/07/11 05:22:44;;;;;;;0.80;0.80;;;14.60;99.90;;;;;;4152544;28;20092;-95
2022/07/11 05:25:05;;;;;;;0.75;0.75;;;14.60;99.90;;;;;;4150000;28;20109;-94
2022/07/11 05:27:26;;;;;;;3.43;0.93;;;14.60;99.90;;;;;;4159246;28;20116;-95
2022/07/11 05:29:48;;;;;;;1.48;0.90;;;14.70;99.90;;;;;;4164531;28;20096;-95
2022/07/11 05:32:09;;;;;;;1.98;0.90;;;14.80;99.90;;;;;;4152573;28;20150;-94
2022/07/11 05:34:30;;;;;;;5.93;1.27;;;14.90;99.90;;;;;;4177214;28;20106;-89
2022/07/11 05:36:52;;;;;;;5.15;0.80;;;15.00;99.90;;;;;;4163787;28;20125;-94
2022/07/11 05:39:15;;;;;;;0.95;0.95;;;15.10;99.90;;;;;;4171030;28;20121;-93
2022/07/11 05:41:35;;;;;;;2.83;0.82;;;15.20;99.90;;;;;;4158804;28;20084;-93
2022/07/11 05:43:56;;;;;;;1.90;0.90;;;15.30;99.90;;;;;;4158382;28;20057;-93
2022/07/11 05:46:17;;;;;;;3.42;0.90;;;15.30;99.90;;;;;;4162780;28;20052;-92
2022/07/11 05:48:39;;;;;;;0.90;0.90;;;15.40;99.90;;;;;;4150483;28;20097;-92
2022/07/11 05:51:00;;;;;;;1.13;0.80;;;15.50;99.90;;;;;;4149146;28;20521;-92
2022/07/11 05:53:22;;;;;;;0.98;0.95;;;15.50;99.90;;;;;;4162195;28;20111;-92
2022/07/11 05:55:43;;;;;;;1.15;0.80;;;15.80;99.90;;;;;;4145043;28;20061;-92
2022/07/11 05:58:28;;;;;;;0.77;0.77;;;15.90;99.90;;;;;;4148909;28;20788;-91
2022/07/11 06:00:50;;;;;;;1.00;0.80;;;16.20;99.90;;;;;;4115140;28;20063;-92
2022/07/11 06:03:13;;;;;;;0.80;0.70;;;16.20;99.90;;;;;;4116173;28;20130;-91
2022/07/11 06:05:36;;;;;;;4.13;0.80;;;16.40;99.90;;;;;;4107631;28;20090;-93
2022/07/11 06:08:42;;;;;;;0.98;0.77;;;16.70;99.90;;;;;;4101868;28;20403;-93
2022/07/11 06:11:03;;;;;;;0.80;0.80;;;17.00;99.90;;;;;;4055655;29;20062;-93
2022/07/11 06:13:25;;;;;;;0.80;0.80;;;16.90;99.90;;;;;;4068405;29;20094;-92
2022/07/11 06:15:47;;;;;;;0.80;0.80;;;17.20;99.90;;;;;;4051066;29;20062;-93
2022/07/11 06:18:09;;;;;;;1.90;1.55;;;17.20;99.90;;;;;;4051781;29;20059;-90
2022/07/11 06:20:32;;;;;;;3.50;0.73;;;17.50;99.90;;;;;;4052098;29;20075;-92
2022/07/11 06:22:53;;;;;;;;;;;17.50;99.90;;;;;;4052600;29;20194;-92
2022/07/11 06:25:19;;;;;;;0.70;0.70;;;17.70;99.90;;;;;;4052631;29;20581;-93
2022/07/11 06:27:41;;;;;;;1.30;0.70;;;17.80;99.90;;;;;;4046575;29;20055;-92
2022/07/11 06:30:28;;;;;;;0.70;0.70;;;17.90;99.90;;;;;;4052351;29;20104;-92
2022/07/11 06:33:17;;;;;;;1.25;1.10;;;18.00;99.90;;;;;;4051725;29;20084;-92
2022/07/11 06:35:54;;;;;;;0.70;0.70;;;18.10;99.90;;;;;;4021144;29;20060;-94
2022/07/11 06:38:29;;;;;;;1.75;0.70;;;18.30;99.90;;;;;;4041572;29;20055;-93
2022/07/11 06:40:50;;;;;;;1.33;0.60;;;18.40;99.90;;;;;;4034683;29;20140;-92
2022/07/11 06:43:11;;;;;;;0.60;0.60;;;18.60;99.90;;;;;;4048109;29;20060;-94
2022/07/11 06:45:33;;;;;;;0.57;0.57;;;18.80;99.90;;;;;;4043887;29;20097;-92
2022/07/11 06:47:53;;;;;;;0.60;0.60;;;19.00;99.90;;;;;;4074136;29;20113;-92
2022/07/11 06:50:14;;;;;;;1.98;0.60;;;19.30;99.90;;;;;;4088911;29;20065;-92
2022/07/11 06:52:36;;;;;;;1.90;0.60;;;19.50;99.90;;;;;;4096119;29;20054;-93
2022/07/11 06:54:58;;;;;;;0.73;0.60;;;19.80;99.90;;;;;;4081689;29;20075;-91
2022/07/11 06:57:18;;;;;;;0.50;0.50;;;20.30;99.90;;;;;;4067882;29;20051;-91
2022/07/11 06:59:40;;;;;;;0.52;0.47;;;20.90;99.90;;;;;;4070885;29;20088;-93
2022/07/11 07:02:01;;;;;;;0.40;0.40;;;21.30;99.90;;;;;;4083317;29;20760;-93
2022/07/11 07:04:23;;;;;;;0.55;0.55;;;21.60;99.90;;;;;;4069556;29;20813;-94
2022/07/11 07:07:11;;;;;;;1.55;0.50;;;21.80;99.90;;;;;;4083293;29;20099;-94
2022/07/11 07:09:57;;;;;;;0.43;0.43;;;22.00;99.90;;;;;;4042712;29;20484;-92
2022/07/11 07:12:45;;;;;;;1.38;0.50;;;22.10;99.90;;;;;;4042979;29;20081;-92
2022/07/11 07:15:07;;;;;;;1.45;0.40;;;22.60;99.90;;;;;;4035936;29;20071;-92
2022/07/11 07:17:27;;;;;;;2.28;0.40;;;22.40;99.90;;;;;;4036023;29;20064;-94
2022/07/11 07:19:48;;;;;;;0.40;0.40;;;22.30;99.90;;;;;;4035783;29;20578;-93
2022/07/11 07:22:15;;;;;;;3.20;0.40;;;22.30;99.90;;;;;;4023278;29;20671;-94
2022/07/11 07:24:38;;;;;;;0.50;0.50;;;22.60;99.90;;;;;;4023218;29;20056;-92
2022/07/11 07:27:25;;;;;;;2.05;0.50;;;22.70;99.90;;;;;;4035772;29;20052;-92
2022/07/11 07:30:00;;;;;;;0.40;0.40;;;23.20;99.90;;;;;;4005538;29;20188;-94
2022/07/11 07:33:01;;;;;;;2.70;0.50;;;23.20;99.90;;;;;;4019751;29;20136;-93
2022/07/11 07:35:23;;;;;;;0.40;0.40;;;23.60;99.90;;;;;;3977563;29;20130;-92
2022/07/11 07:37:42;;;;;;;1.10;0.40;;;23.90;99.90;;;;;;3988327;29;20048;-94
2022/07/11 07:40:04;;;;;;;0.40;0.40;;;24.10;99.90;;;;;;3960109;30;20055;-94
2022/07/11 07:42:23;;;;;;;0.77;0.40;;;23.90;99.60;;;;;;3960674;30;20038;-93
2022/07/11 07:44:44;;;;;;;0.30;0.30;;;24.10;99.40;;;;;;3935513;30;20850;-95
2022/07/11 07:47:36;;;;;;;0.52;0.40;;;24.30;99.80;;;;;;3962247;29;20665;-95
2022/07/11 07:49:55;;;;;;;0.40;0.40;;;24.30;99.90;;;;;;3994449;29;20044;-94
2022/07/11 07:52:32;;;;;;;0.40;0.40;;;24.60;99.30;;;;;;4029866;29;20081;-93
2022/07/11 07:55:19;;;;;;;;;;;24.70;98.40;;;;;;4036681;29;20650;-93
2022/07/11 07:57:55;;;;;;;2.35;0.40;;;25.10;99.90;;;;;;4005051;29;20011;-92
2022/07/11 08:03:23;;;;;;;1.35;0.82;;;24.90;97.90;;;;;;4005443;29;20053;-89
2022/07/11 08:05:59;;;;;;;0.70;0.32;;;24.90;99.40;;;;;;4012650;29;20048;-93
2022/07/11 08:08:21;;;;;;;;;;;25.40;97.80;;;;;;4023532;29;20117;-94
2022/07/11 08:11:08;;;;;;;0.68;0.38;;;25.40;97.00;;;;;;4036236;29;20297;-94
2022/07/11 08:13:51;;;;;;;0.40;0.40;;;25.60;96.70;;;;;;4035843;29;20455;-94
2022/07/11 08:16:13;;;;;;;1.65;0.40;;;25.80;98.40;;;;;;4034850;29;20409;-94
2022/07/11 08:18:35;;;;;;;1.95;0.30;;;25.70;97.70;;;;;;4051149;29;20821;-92
2022/07/11 08:20:58;;;;;;;0.30;0.30;;;25.70;97.00;;;;;;4047645;29;20105;-92
2022/07/11 08:23:46;;;;;;;0.30;0.30;;;25.80;97.70;;;;;;4035913;29;20056;-93
2022/07/11 08:26:21;;;;;;;0.38;0.30;;;26.00;96.60;;;;;;4049825;29;20856;-94
2022/07/11 08:29:13;;;;;;;1.55;0.30;;;26.40;96.30;;;;;;4051590;29;20099;-94
2022/07/11 08:32:16;;;;;;;0.30;0.30;;;26.10;95.30;;;;;;4036290;29;20055;-94
2022/07/11 08:34:36;;;;;;;1.00;0.30;;;25.60;93.80;;;;;;4033921;29;20173;-94
2022/07/11 08:37:11;;;;;;;0.60;0.30;;;25.80;95.00;;;;;;4037765;29;20048;-95
2022/07/11 08:39:32;;;;;;;0.30;0.30;;;25.90;94.90;;;;;;4039190;29;20059;-95
2022/07/11 08:42:07;;;;;;;0.30;0.30;;;25.90;94.90;;;;;;4038713;29;20100;-94
2022/07/11 08:44:43;;;;;;;1.65;0.30;;;26.40;95.10;;;;;;4027776;29;20076;-93
2022/07/11 08:47:19;;;;;;;0.32;0.30;;;26.80;94.90;;;;;;4038571;29;20866;-91
2022/07/11 08:49:41;;;;;;;1.50;0.32;;;27.00;93.80;;;;;;4037860;29;20160;-92
2022/07/11 08:52:05;;;;;;;0.30;0.30;;;27.10;94.30;;;;;;4035311;29;20137;-91
2022/07/11 08:54:27;;;;;;;0.47;0.30;;;27.40;93.90;;;;;;4053405;29;20063;-91
2022/07/11 08:56:49;;;;;;;0.60;0.57;;;27.50;93.70;;;;;;4044464;29;20140;-91
2022/07/11 08:59:11;;;;;;;1.35;0.40;;;27.70;93.70;;;;;;4040719;29;20473;-91
2022/07/11 09:02:02;;;;;;;0.95;0.30;;;27.90;94.50;;;;;;4066529;29;20400;-91
2022/07/11 09:04:24;;;;;;;0.30;0.30;;;27.30;93.40;;;;;;4069391;29;20108;-92
2022/07/11 09:06:46;;;;;;;0.82;0.30;;;27.60;93.20;;;;;;4081187;29;20179;-91
2022/07/11 09:09:10;;;;;;;0.30;0.30;;;27.90;92.90;;;;;;4112745;28;20090;-91
2022/07/11 09:11:55;;;;;;;0.30;0.30;;;28.00;93.10;;;;;;4128032;28;20564;-92
2022/07/11 09:14:29;;;;;;;0.40;0.30;;;28.30;92.60;;;;;;4132421;28;20134;-90
2022/07/11 09:17:04;;;;;;;0.70;0.30;;;28.30;91.50;;;;;;4132017;28;20070;-90
2022/07/11 09:19:27;;;;;;;0.28;0.28;;;28.00;91.80;;;;;;4148727;28;20121;-92
2022/07/11 09:25:43;;;;;;;0.30;0.30;;;28.50;91.50;;;;;;4088683;29;20054;-91
2022/07/11 09:28:29;;;;;;;0.20;0.20;;;29.30;91.50;;;;;;4097598;29;20102;-92
2022/07/11 09:30:50;;;;;;;1.27;0.30;;;29.30;90.90;;;;;;4052398;29;20142;-93
2022/07/11 09:33:14;;;;;;;0.25;0.25;;;29.20;90.30;;;;;;4037749;29;20075;-92
2022/07/11 09:36:03;;;;;;;1.00;0.22;;;28.50;89.10;;;;;;4050569;29;20152;-92
2022/07/11 09:38:22;;;;;;;0.30;0.30;;;28.60;91.30;;;;;;4008841;29;20135;-91
2022/07/11 09:40:48;;;;;;;0.40;0.30;;;29.00;90.10;;;;;;4002010;29;20092;-91
2022/07/11 09:43:36;;;;;;;0.63;0.30;;;29.20;88.90;;;;;;4006419;29;20514;-92
2022/07/11 09:46:06;;;;;;;1.02;0.40;;;28.90;89.20;;;;;;3995734;29;20099;-92
2022/07/11 09:48:53;;;;;;;1.35;0.28;;;29.20;86.40;;;;;;3995613;29;20540;-89
2022/07/11 09:51:20;;;;;;;3.60;0.20;;;28.80;86.70;;;;;;3991493;29;20122;-92
2022/07/11 09:54:04;;;;;;;0.25;0.20;;;29.00;91.10;;;;;;3976538;29;20662;-91
2022/07/11 09:56:34;;;;;;;0.30;0.30;;;29.20;88.40;;;;;;3974882;29;20115;-92
2022/07/11 09:59:04;;;;;;;0.22;0.22;;;29.60;88.20;;;;;;3978944;29;20608;-92
2022/07/11 10:01:27;;;;;;;0.30;0.30;;;29.30;85.40;;;;;;3980268;29;20053;-91
2022/07/11 10:03:48;;;;;;;0.22;0.22;;;29.40;84.80;;;;;;4000393;29;20125;-92
2022/07/11 10:06:08;;;;;;;2.67;0.30;;;29.20;83.60;;;;;;3980801;29;20103;-92
2022/07/11 10:09:13;;;;;;;0.20;0.20;;;29.00;84.10;;;;;;4050848;29;20576;-91
2022/07/11 10:11:47;;;;;;;0.30;0.30;;;29.90;86.60;;;;;;4006361;29;20088;-91
2022/07/11 10:14:23;;;;;;;0.55;0.22;;;29.50;84.10;;;;;;4002262;29;20130;-93
2022/07/11 10:16:56;;;;;;;;;;;29.70;84.20;;;;;;3991528;29;20117;-92
2022/07/11 10:19:22;;;;;;;0.30;0.30;;;30.00;86.40;;;;;;4024775;29;19961;-92
2022/07/11 10:22:09;;;;;;;0.30;0.25;;;30.50;83.70;;;;;;4021208;29;20109;-93
2022/07/11 10:24:55;;;;;;;0.22;0.20;;;30.50;86.10;;;;;;4037397;29;20084;-93
2022/07/11 10:27:21;;;;;;;0.20;0.20;;;30.10;84.50;;;;;;4044713;29;20071;-92
2022/07/11 10:30:10;;;;;;;0.20;0.20;;;29.90;85.30;;;;;;4086236;29;20086;-93
2022/07/11 10:32:31;;;;;;;0.25;0.20;;;30.10;84.20;;;;;;4023812;29;20532;-91
2022/07/11 10:35:23;;;;;;;1.33;0.30;;;30.10;84.00;;;;;;4036747;29;20068;-93
2022/07/11 10:37:51;;;;;;;0.35;0.35;;;30.20;82.80;;;;;;3991198;29;20138;-95
2022/07/11 10:40:44;;;;;;;0.20;0.20;;;29.80;83.60;;;;;;3991470;29;20560;-94
2022/07/11 10:43:07;;;;;;;1.10;0.20;;;30.30;85.10;;;;;;3981501;29;20052;-94
2022/07/11 10:45:51;;;;;;;0.65;0.20;;;30.10;82.40;;;;;;4006205;29;20053;-95
2022/07/11 10:48:51;;;;;;;0.98;0.20;;;30.30;84.20;;;;;;4021170;29;20060;-93
2022/07/11 10:51:24;;;;;;;0.20;0.20;;;30.50;85.30;;;;;;3987729;29;20075;-95
2022/07/11 10:53:48;;;;;;;;;;;30.90;82.90;;;;;;3996089;29;20099;-93
2022/07/11 10:56:49;;;;;;;0.68;0.55;;;31.00;82.00;;;;;;3975630;29;19932;-92
2022/07/11 10:59:25;;;;;;;3.20;0.20;;;31.60;82.00;;;;;;4272279;23;20063;-93
2022/07/11 11:02:12;;;;;;;2.00;0.25;;;30.70;78.70;;;;;;4178612;28;20048;-96
2022/07/11 11:05:07;;;;;;;0.20;0.20;;;30.40;80.40;;;;;;4186774;28;20778;-96
2022/07/11 11:07:37;;;;;;;0.57;0.30;;;30.50;81.20;;;;;;4153752;28;20077;-95
2022/07/11 11:11:08;;;;;;;1.55;0.20;;;31.20;83.30;;;;;;4126366;28;20086;-96
2022/07/11 11:14:10;;;;;;;1.38;0.20;;;31.30;82.40;;;;;;4078468;29;20056;-96
2022/07/11 11:16:36;;;;;;;0.20;0.20;;;31.00;78.50;;;;;;4064723;29;20069;-96
2022/07/11 11:19:04;;;;;;;0.20;0.20;;;31.40;80.60;;;;;;4066850;29;20272;-95
2022/07/11 11:22:00;;;;;;;0.20;0.20;;;31.00;81.40;;;;;;4117117;22;20061;-84
2022/07/11 11:24:23;;;;;;;0.20;0.20;;;31.20;85.00;;;;;;4157143;28;20131;-84
2022/07/11 11:26:48;;;;;;;0.20;0.20;;;30.90;80.70;;;;;;4146053;28;20141;-84
2022/07/11 11:29:08;;;;;;;1.08;0.20;;;30.80;81.80;;;;;;4160998;28;20102;-84
2022/07/11 11:31:30;;;;;;;0.20;0.20;;;31.50;80.20;;;;;;4144391;28;20485;-84
2022/07/11 11:33:51;;;;;;;0.20;0.20;;;31.10;81.30;;;;;;4146103;28;20215;-84
2022/07/11 11:36:12;;;;;;;0.88;0.25;;;31.20;81.20;;;;;;4156173;28;20523;-84
2022/07/11 11:38:38;;;;;;;0.20;0.20;;;31.10;78.20;;;;;;4145858;28;20464;-84
2022/07/11 11:40:59;;;;;;;0.32;0.20;;;30.30;78.20;;;;;;4161027;28;20068;-84
2022/07/11 11:43:22;;;;;;;0.20;0.20;;;30.10;79.60;;;;;;4144504;28;20099;-84
2022/07/11 11:45:50;;;;;;;0.20;0.20;;;30.60;81.40;;;;;;4164074;28;20114;-80
2022/07/11 11:48:11;;;;;;;0.20;0.20;;;31.00;79.90;;;;;;4174646;28;20099;-80
2022/07/11 11:50:31;;;;;;;0.20;0.20;;;31.10;81.10;;;;;;4150849;28;20072;-80
2022/07/11 11:52:53;;;;;;;0.20;0.20;;;31.30;79.00;;;;;;4140949;28;20045;-80
2022/07/11 11:55:13;;;;;;;2.15;0.20;;;31.30;79.90;;;;;;4151981;28;20045;-80
2022/07/11 11:57:34;;;;;;;0.20;0.20;;;31.90;79.00;;;;;;4160218;28;20084;-80
2022/07/11 11:59:56;;;;;;;0.20;0.20;;;31.70;77.50;;;;;;4145515;28;20052;-80
2022/07/11 12:02:25;;;;;;;0.20;0.20;;;31.20;79.30;;;;;;4160370;28;20060;-80
2022/07/11 12:04:46;;;;;;;0.50;0.20;;;31.70;78.50;;;;;;4145253;28;20073;-80
2022/07/11 12:07:07;;;;;;;0.95;0.20;;;32.30;80.60;;;;;;4145081;28;20130;-80
2022/07/11 12:09:47;;;;;;;1.17;0.17;;;32.00;79.50;;;;;;4160539;28;20084;-80
2022/07/11 12:14:47;;;;;;;1.45;0.20;;;32.80;76.00;;;;;;4151750;28;20829;-80
2022/07/11 12:17:09;;;;;;;;;;;32.20;76.40;;;;;;4149212;28;20127;-80
2022/07/11 12:19:34;;;;;;;0.20;0.20;;;32.20;77.30;;;;;;4158755;28;19928;-80
2022/07/11 12:21:55;;;;;;;0.25;0.20;;;32.30;75.30;;;;;;4158067;28;20476;-80
2022/07/11 12:24:24;;;;;;;1.15;0.20;;;31.60;74.20;;;;;;4145241;28;20057;-80
2022/07/11 12:26:46;;;;;;;0.20;0.20;;;32.00;82.00;;;;;;4160196;28;20416;-80
2022/07/11 12:29:19;;;;;;;0.20;0.20;;;33.10;78.70;;;;;;4145344;28;20045;-80
2022/07/11 12:31:43;;;;;;;0.20;0.20;;;33.40;78.00;;;;;;4129172;28;20062;-80
2022/07/11 12:34:05;;;;;;;0.50;0.20;;;32.90;75.20;;;;;;4146482;28;20053;-80
2022/07/11 12:36:32;;;;;;;0.20;0.20;;;33.00;75.00;;;;;;4142488;28;20090;-80
2022/07/11 12:38:53;;;;;;;0.20;0.20;;;33.10;72.90;;;;;;4134957;28;20130;-80
2022/07/11 12:41:15;;;;;;;0.15;0.15;;;33.20;72.90;;;;;;4141677;28;20069;-80
2022/07/11 12:46:32;;;;;;;0.20;0.20;;;34.00;71.80;;;;;;4148335;28;20098;-80
2022/07/11 12:48:53;;;;;;;0.13;0.13;;;34.40;74.50;;;;;;4152738;28;20087;-80
2022/07/11 12:51:26;;;;;;;0.20;0.20;;;34.50;74.40;;;;;;4128809;28;20057;-80
2022/07/11 12:53:48;;;;;;;0.47;0.20;;;34.30;72.90;;;;;;4135826;28;20109;-80
2022/07/11 12:56:22;;;;;;;0.20;0.20;;;34.60;77.10;;;;;;4145140;28;20594;-80